Siliana, Tunisia

4:57 PM CET on September 19, 2014 (GMT +0100)
Jendouba | Change Station
CLOSE
Current Station
Airport
Location: Jendouba,
Elevation: 472 ft
Nearby Weather Stations

Elev 472 ft 36.48 °N, 8.80 °E | Updated 57 minutes ago

Scattered Clouds
Scattered Clouds
106 °F
Feels Like 114 °F
N
12
Wind Variable Wind from NE

Today
High -- | Low -- °F
--% Chance of Precip.
Yesterday
High -- | Low -- °F
Precip. -- in
6:07 AM 6:24 PM
Waning Crescent, 18% visible
Pressure 29.83 in
Visibility 6.2 miles
Clouds Scattered Clouds 2000 ft
Heat Index 114 °F
Dew Point 70 °F
Humidity 31%
Rainfall 0.00 in
Snow Depth Not available.
UV 2 out of 12
Pollen Not available.
Air Quality Not available.
Flu Activity Not available.
METAR DTTN 191500Z 05010KT 030V090 9999 SCT020 41/21 Q1010 SIROCCO

More Conditions Fewer Conditions

Pressure 29.83 in
Visibility 6.2 miles
Clouds Scattered Clouds 2000 ft
Heat Index 114 °F
Dew Point 70 °F
Humidity 31%
Rainfall 0.00 in
Snow Depth Not available.
UV 2 out of 12
Pollen Not available.
Air Quality Not available.
Flu Activity Not available.
METAR DTTN 191500Z 05010KT 030V090 9999 SCT020 41/21 Q1010 SIROCCO

More Conditions Fewer Conditions

10-Day Weather Forecast

Almanac

Astronomy

Sep. 19, 2014 Rise Set
Actual Time 6:07 AM CET 6:24 PM CET
Civil Twilight 5:42 AM CET 6:49 PM CET
Nautical Twilight 5:12 AM CET 7:19 PM CET
Astronomical Twilight 4:41 AM CET 7:50 PM CET
Moon 1:44 AM CET 3:37 PM CET
Length of Visible Light 13h 07m
Length of Day
12h 16m
Tomorrow will be 2m 15s shorter.
Waning Crescent, 18% of the Moon is Illuminated
Today
Waning Crescent
Sep 24
New
Oct 1
First Quarter
Oct 8
Full
Oct 15
Last Quarter

Today's Extremes

Country Highs Country Lows

Community

WunderPhotos

Upload Photos

1,754,637 photos uploaded!

WunderBlogs® & News

By Dr. Jeff Masters
Director of Meteorology, Weather Underground
By Kari Strenfel
Meteorologist, Weather Underground
By Christopher C. Burt
Weather Historian, Weather Underground
September 19, 2014
September 19, 2014
September 19, 2014

Nearby

Snow Depth

Not available.

Earthquake Activity

City Distance Mag. Time & Date
No recent earthquake activity has been reported nearby.
Minimum magnitude displayed is 2.5.

Coastal Water Temperatures

Place Temperature
No Stations Reporting

Nearby Weather Stations